sensor_id;sensor_type;location;lat;lon;timestamp;temperature;humidity
14993;DHT22;7592;51.088;13.732;2023-11-21T00:02:15;8.80;99.90
14993;DHT22;7592;51.088;13.732;2023-11-21T00:07:07;8.80;99.90
14993;DHT22;7592;51.088;13.732;2023-11-21T00:11:59;8.80;99.90
14993;DHT22;7592;51.088;13.732;2023-11-21T00:16:51;8.90;99.90
14993;DHT22;7592;51.088;13.732;2023-11-21T00:21:44;8.90;99.90
14993;DHT22;7592;51.088;13.732;2023-11-21T00:26:37;8.90;99.90
14993;DHT22;7592;51.088;13.732;2023-11-21T00:31:30;9.00;99.90
14993;DHT22;7592;51.088;13.732;2023-11-21T00:36:22;9.00;99.90
14993;DHT22;7592;51.088;13.732;2023-11-21T00:41:14;9.00;99.90
14993;DHT22;7592;51.088;13.732;2023-11-21T00:46:07;9.00;99.90
14993;DHT22;7592;51.088;13.732;2023-11-21T00:50:59;9.00;99.90
14993;DHT22;7592;51.088;13.732;2023-11-21T00:55:52;9.00;99.90
14993;DHT22;7592;51.088;13.732;2023-11-21T01:00:48;9.10;99.90
14993;DHT22;7592;51.088;13.732;2023-11-21T01:05:41;9.00;99.90
14993;DHT22;7592;51.088;13.732;2023-11-21T01:10:33;9.00;99.90
14993;DHT22;7592;51.088;13.732;2023-11-21T01:15:26;9.00;99.90
14993;DHT22;7592;51.088;13.732;2023-11-21T01:20:18;9.00;99.90
14993;DHT22;7592;51.088;13.732;2023-11-21T01:25:11;9.00;99.90
14993;DHT22;7592;51.088;13.732;2023-11-21T01:30:04;9.00;99.90
14993;DHT22;7592;51.088;13.732;2023-11-21T01:34:56;9.00;99.90
14993;DHT22;7592;51.088;13.732;2023-11-21T01:39:48;9.00;99.90
14993;DHT22;7592;51.088;13.732;2023-11-21T01:44:40;9.00;99.90
14993;DHT22;7592;51.088;13.732;2023-11-21T01:49:33;9.00;99.90
14993;DHT22;7592;51.088;13.732;2023-11-21T01:54:26;9.00;99.90
14993;DHT22;7592;51.088;13.732;2023-11-21T01:59:20;9.00;99.90
14993;DHT22;7592;51.088;13.732;2023-11-21T02:04:14;9.00;99.90
14993;DHT22;7592;51.088;13.732;2023-11-21T02:09:06;9.00;99.90
14993;DHT22;7592;51.088;13.732;2023-11-21T02:13:59;9.00;99.90
14993;DHT22;7592;51.088;13.732;2023-11-21T02:18:53;9.00;99.90
14993;DHT22;7592;51.088;13.732;2023-11-21T02:23:45;9.10;99.90
14993;DHT22;7592;51.088;13.732;2023-11-21T02:28:38;9.10;99.90
14993;DHT22;7592;51.088;13.732;2023-11-21T02:33:31;9.20;99.90
14993;DHT22;7592;51.088;13.732;2023-11-21T02:38:25;9.20;99.90
14993;DHT22;7592;51.088;13.732;2023-11-21T02:43:18;9.20;99.90
14993;DHT22;7592;51.088;13.732;2023-11-21T02:48:10;9.00;99.90
14993;DHT22;7592;51.088;13.732;2023-11-21T02:53:03;8.80;99.90
14993;DHT22;7592;51.088;13.732;2023-11-21T02:57:56;8.60;99.90
14993;DHT22;7592;51.088;13.732;2023-11-21T03:02:49;8.40;99.90
14993;DHT22;7592;51.088;13.732;2023-11-21T03:07:42;8.30;99.90
14993;DHT22;7592;51.088;13.732;2023-11-21T03:12:34;8.20;99.90
14993;DHT22;7592;51.088;13.732;2023-11-21T03:17:26;8.20;99.90
14993;DHT22;7592;51.088;13.732;2023-11-21T03:22:18;8.10;99.90
14993;DHT22;7592;51.088;13.732;2023-11-21T03:27:11;8.00;99.90
14993;DHT22;7592;51.088;13.732;2023-11-21T03:32:04;8.00;99.90
14993;DHT22;7592;51.088;13.732;2023-11-21T03:36:56;8.00;99.90
14993;DHT22;7592;51.088;13.732;2023-11-21T03:41:48;8.00;99.90
14993;DHT22;7592;51.088;13.732;2023-11-21T03:46:42;7.90;99.90
14993;DHT22;7592;51.088;13.732;2023-11-21T03:51:36;7.90;99.90
14993;DHT22;7592;51.088;13.732;2023-11-21T03:56:28;7.90;99.90
14993;DHT22;7592;51.088;13.732;2023-11-21T04:01:24;8.00;99.90
14993;DHT22;7592;51.088;13.732;2023-11-21T04:06:17;8.10;99.90
14993;DHT22;7592;51.088;13.732;2023-11-21T04:11:10;8.20;99.90
14993;DHT22;7592;51.088;13.732;2023-11-21T04:16:04;8.20;99.90
14993;DHT22;7592;51.088;13.732;2023-11-21T04:20:57;8.30;99.90
14993;DHT22;7592;51.088;13.732;2023-11-21T04:25:49;8.30;99.90
14993;DHT22;7592;51.088;13.732;2023-11-21T04:30:41;8.30;99.90
14993;DHT22;7592;51.088;13.732;2023-11-21T04:35:33;8.30;99.90
14993;DHT22;7592;51.088;13.732;2023-11-21T04:40:25;8.30;99.90
14993;DHT22;7592;51.088;13.732;2023-11-21T04:45:19;8.40;99.90
14993;DHT22;7592;51.088;13.732;2023-11-21T04:50:11;8.40;99.90
14993;DHT22;7592;51.088;13.732;2023-11-21T04:55:03;8.50;99.90
14993;DHT22;7592;51.088;13.732;2023-11-21T04:59:55;8.60;99.90
14993;DHT22;7592;51.088;13.732;2023-11-21T05:04:48;8.70;99.90
14993;DHT22;7592;51.088;13.732;2023-11-21T05:09:43;8.70;99.90
14993;DHT22;7592;51.088;13.732;2023-11-21T05:14:38;8.80;99.90
14993;DHT22;7592;51.088;13.732;2023-11-21T05:19:30;8.80;99.90
14993;DHT22;7592;51.088;13.732;2023-11-21T05:24:24;8.80;99.90
14993;DHT22;7592;51.088;13.732;2023-11-21T05:29:16;8.90;99.90
14993;DHT22;7592;51.088;13.732;2023-11-21T05:34:08;8.90;99.90
14993;DHT22;7592;51.088;13.732;2023-11-21T05:39:00;8.90;99.90
14993;DHT22;7592;51.088;13.732;2023-11-21T05:43:52;8.90;99.90
14993;DHT22;7592;51.088;13.732;2023-11-21T05:48:45;8.90;99.90
14993;DHT22;7592;51.088;13.732;2023-11-21T05:53:38;8.80;99.90
14993;DHT22;7592;51.088;13.732;2023-11-21T05:58:30;8.80;99.90
14993;DHT22;7592;51.088;13.732;2023-11-21T06:03:22;8.80;99.90
14993;DHT22;7592;51.088;13.732;2023-11-21T06:08:15;8.70;99.90
14993;DHT22;7592;51.088;13.732;2023-11-21T06:13:08;8.60;99.90
14993;DHT22;7592;51.088;13.732;2023-11-21T06:18:02;8.60;99.90
14993;DHT22;7592;51.088;13.732;2023-11-21T06:22:54;8.70;99.90
14993;DHT22;7592;51.088;13.732;2023-11-21T06:27:48;8.80;99.90
14993;DHT22;7592;51.088;13.732;2023-11-21T06:32:41;8.80;99.90
14993;DHT22;7592;51.088;13.732;2023-11-21T06:37:33;8.80;99.90
14993;DHT22;7592;51.088;13.732;2023-11-21T06:42:26;8.90;99.90
14993;DHT22;7592;51.088;13.732;2023-11-21T06:47:19;8.90;99.90
14993;DHT22;7592;51.088;13.732;2023-11-21T06:52:14;8.90;99.90
14993;DHT22;7592;51.088;13.732;2023-11-21T06:57:06;9.00;99.90
14993;DHT22;7592;51.088;13.732;2023-11-21T07:01:58;9.10;99.90
14993;DHT22;7592;51.088;13.732;2023-11-21T07:06:51;9.20;99.90
14993;DHT22;7592;51.088;13.732;2023-11-21T07:11:43;9.30;99.90
14993;DHT22;7592;51.088;13.732;2023-11-21T07:16:36;9.40;99.90
14993;DHT22;7592;51.088;13.732;2023-11-21T07:21:29;9.40;99.90
14993;DHT22;7592;51.088;13.732;2023-11-21T07:26:21;9.50;99.90
14993;DHT22;7592;51.088;13.732;2023-11-21T07:31:14;9.60;99.90
14993;DHT22;7592;51.088;13.732;2023-11-21T07:36:06;9.70;99.90
14993;DHT22;7592;51.088;13.732;2023-11-21T07:40:59;9.80;99.90
14993;DHT22;7592;51.088;13.732;2023-11-21T07:45:53;10.00;99.90
14993;DHT22;7592;51.088;13.732;2023-11-21T07:50:45;10.30;99.90
14993;DHT22;7592;51.088;13.732;2023-11-21T07:55:38;10.40;99.90
14993;DHT22;7592;51.088;13.732;2023-11-21T08:00:30;10.50;99.90
14993;DHT22;7592;51.088;13.732;2023-11-21T08:05:23;10.50;99.90
14993;DHT22;7592;51.088;13.732;2023-11-21T08:10:25;10.50;99.90
14993;DHT22;7592;51.088;13.732;2023-11-21T08:15:19;10.30;99.90
14993;DHT22;7592;51.088;13.732;2023-11-21T08:20:12;10.20;99.90
14993;DHT22;7592;51.088;13.732;2023-11-21T08:25:04;10.20;99.90
14993;DHT22;7592;51.088;13.732;2023-11-21T08:29:57;10.20;99.90
14993;DHT22;7592;51.088;13.732;2023-11-21T08:34:50;10.20;99.90
14993;DHT22;7592;51.088;13.732;2023-11-21T08:39:44;10.20;99.90
14993;DHT22;7592;51.088;13.732;2023-11-21T08:44:36;10.20;99.90
14993;DHT22;7592;51.088;13.732;2023-11-21T08:49:30;10.20;99.90
14993;DHT22;7592;51.088;13.732;2023-11-21T08:54:22;10.20;99.90
14993;DHT22;7592;51.088;13.732;2023-11-21T08:59:14;10.10;99.90
14993;DHT22;7592;51.088;13.732;2023-11-21T09:04:06;10.00;99.90
14993;DHT22;7592;51.088;13.732;2023-11-21T09:08:58;10.00;99.90
14993;DHT22;7592;51.088;13.732;2023-11-21T09:13:51;9.90;99.90
14993;DHT22;7592;51.088;13.732;2023-11-21T09:18:44;10.00;99.90
14993;DHT22;7592;51.088;13.732;2023-11-21T09:23:37;10.00;99.90
14993;DHT22;7592;51.088;13.732;2023-11-21T09:28:29;10.10;99.90
14993;DHT22;7592;51.088;13.732;2023-11-21T09:33:21;10.10;99.90
14993;DHT22;7592;51.088;13.732;2023-11-21T09:38:14;10.00;99.90
14993;DHT22;7592;51.088;13.732;2023-11-21T09:43:17;9.70;99.90
14993;DHT22;7592;51.088;13.732;2023-11-21T09:48:10;9.50;99.90
14993;DHT22;7592;51.088;13.732;2023-11-21T09:53:19;9.50;99.90
14993;DHT22;7592;51.088;13.732;2023-11-21T09:58:16;9.40;99.90
14993;DHT22;7592;51.088;13.732;2023-11-21T10:03:10;8.90;99.90
14993;DHT22;7592;51.088;13.732;2023-11-21T10:08:04;8.60;99.90
14993;DHT22;7592;51.088;13.732;2023-11-21T10:13:02;8.60;99.90
14993;DHT22;7592;51.088;13.732;2023-11-21T10:17:55;8.40;99.90
14993;DHT22;7592;51.088;13.732;2023-11-21T10:22:47;8.40;99.90
14993;DHT22;7592;51.088;13.732;2023-11-21T10:27:40;8.60;99.90
14993;DHT22;7592;51.088;13.732;2023-11-21T10:32:35;8.70;99.90
14993;DHT22;7592;51.088;13.732;2023-11-21T10:37:28;8.70;99.90
14993;DHT22;7592;51.088;13.732;2023-11-21T10:42:20;8.80;99.90
14993;DHT22;7592;51.088;13.732;2023-11-21T10:47:14;8.90;99.90
14993;DHT22;7592;51.088;13.732;2023-11-21T10:52:07;8.90;99.90
14993;DHT22;7592;51.088;13.732;2023-11-21T10:57:00;8.90;99.90
14993;DHT22;7592;51.088;13.732;2023-11-21T11:01:53;8.90;99.90
14993;DHT22;7592;51.088;13.732;2023-11-21T11:06:55;9.00;99.90
14993;DHT22;7592;51.088;13.732;2023-11-21T11:11:49;9.00;99.90
14993;DHT22;7592;51.088;13.732;2023-11-21T11:16:42;9.00;99.90
14993;DHT22;7592;51.088;13.732;2023-11-21T11:21:59;8.80;99.90
14993;DHT22;7592;51.088;13.732;2023-11-21T11:32:09;8.70;99.90
14993;DHT22;7592;51.088;13.732;2023-11-21T11:37:06;8.40;99.90
14993;DHT22;7592;51.088;13.732;2023-11-21T11:42:03;8.20;99.90
14993;DHT22;7592;51.088;13.732;2023-11-21T11:46:56;8.20;99.90
14993;DHT22;7592;51.088;13.732;2023-11-21T11:57:25;8.30;99.90
14993;DHT22;7592;51.088;13.732;2023-11-21T12:02:23;8.30;99.90
14993;DHT22;7592;51.088;13.732;2023-11-21T12:07:15;8.30;99.90
14993;DHT22;7592;51.088;13.732;2023-11-21T12:12:08;8.10;99.90
14993;DHT22;7592;51.088;13.732;2023-11-21T12:17:00;8.00;99.90
14993;DHT22;7592;51.088;13.732;2023-11-21T12:21:54;7.80;99.90
14993;DHT22;7592;51.088;13.732;2023-11-21T12:26:48;7.80;99.90
14993;DHT22;7592;51.088;13.732;2023-11-21T12:31:40;7.80;99.90
14993;DHT22;7592;51.088;13.732;2023-11-21T12:36:32;7.80;99.90
14993;DHT22;7592;51.088;13.732;2023-11-21T12:41:26;7.90;99.90
14993;DHT22;7592;51.088;13.732;2023-11-21T12:46:18;7.90;99.90
14993;DHT22;7592;51.088;13.732;2023-11-21T12:51:12;7.80;99.90
14993;DHT22;7592;51.088;13.732;2023-11-21T12:56:10;7.80;99.90
14993;DHT22;7592;51.088;13.732;2023-11-21T13:01:02;7.70;99.90
14993;DHT22;7592;51.088;13.732;2023-11-21T13:05:57;7.50;99.90
14993;DHT22;7592;51.088;13.732;2023-11-21T13:10:53;7.40;99.90
14993;DHT22;7592;51.088;13.732;2023-11-21T13:15:52;7.20;99.90
14993;DHT22;7592;51.088;13.732;2023-11-21T13:20:44;7.10;99.90
14993;DHT22;7592;51.088;13.732;2023-11-21T13:25:38;7.10;99.90
14993;DHT22;7592;51.088;13.732;2023-11-21T13:30:33;6.90;99.90
14993;DHT22;7592;51.088;13.732;2023-11-21T13:35:25;6.80;99.90
14993;DHT22;7592;51.088;13.732;2023-11-21T13:40:29;6.80;99.90
14993;DHT22;7592;51.088;13.732;2023-11-21T13:45:22;6.70;99.90
14993;DHT22;7592;51.088;13.732;2023-11-21T13:50:15;6.80;99.90
14993;DHT22;7592;51.088;13.732;2023-11-21T13:55:16;6.80;99.90
14993;DHT22;7592;51.088;13.732;2023-11-21T14:00:08;6.70;99.90
14993;DHT22;7592;51.088;13.732;2023-11-21T14:05:20;6.60;99.90
14993;DHT22;7592;51.088;13.732;2023-11-21T14:10:21;6.60;99.90
14993;DHT22;7592;51.088;13.732;2023-11-21T14:15:16;6.40;99.90
14993;DHT22;7592;51.088;13.732;2023-11-21T14:20:11;6.40;99.90
14993;DHT22;7592;51.088;13.732;2023-11-21T14:25:12;6.30;99.90
14993;DHT22;7592;51.088;13.732;2023-11-21T14:30:06;6.10;99.90
14993;DHT22;7592;51.088;13.732;2023-11-21T14:34:59;6.10;99.90
14993;DHT22;7592;51.088;13.732;2023-11-21T14:39:51;6.10;99.90
14993;DHT22;7592;51.088;13.732;2023-11-21T14:44:43;6.00;99.90
14993;DHT22;7592;51.088;13.732;2023-11-21T14:49:35;5.90;99.90
14993;DHT22;7592;51.088;13.732;2023-11-21T14:54:43;5.80;99.90
14993;DHT22;7592;51.088;13.732;2023-11-21T14:59:44;5.80;99.90
14993;DHT22;7592;51.088;13.732;2023-11-21T15:04:43;5.70;99.90
14993;DHT22;7592;51.088;13.732;2023-11-21T15:09:35;5.70;99.90
14993;DHT22;7592;51.088;13.732;2023-11-21T15:14:34;5.70;99.90
14993;DHT22;7592;51.088;13.732;2023-11-21T15:19:27;5.70;99.90
14993;DHT22;7592;51.088;13.732;2023-11-21T15:24:20;5.70;99.90
14993;DHT22;7592;51.088;13.732;2023-11-21T15:29:12;5.70;99.90
14993;DHT22;7592;51.088;13.732;2023-11-21T15:34:06;5.80;99.90
14993;DHT22;7592;51.088;13.732;2023-11-21T15:39:00;5.90;99.90
14993;DHT22;7592;51.088;13.732;2023-11-21T15:43:52;5.90;99.90
14993;DHT22;7592;51.088;13.732;2023-11-21T15:48:44;5.90;99.90
14993;DHT22;7592;51.088;13.732;2023-11-21T15:53:42;6.00;99.90
14993;DHT22;7592;51.088;13.732;2023-11-21T15:58:35;5.90;99.90
14993;DHT22;7592;51.088;13.732;2023-11-21T16:03:27;6.10;99.90
14993;DHT22;7592;51.088;13.732;2023-11-21T16:08:20;6.00;99.90
14993;DHT22;7592;51.088;13.732;2023-11-21T16:13:13;5.90;99.90
14993;DHT22;7592;51.088;13.732;2023-11-21T16:18:05;5.90;99.90
14993;DHT22;7592;51.088;13.732;2023-11-21T16:22:57;5.80;99.90
14993;DHT22;7592;51.088;13.732;2023-11-21T16:27:49;5.80;99.90
14993;DHT22;7592;51.088;13.732;2023-11-21T16:32:41;5.90;99.90
14993;DHT22;7592;51.088;13.732;2023-11-21T16:37:33;5.80;99.90
14993;DHT22;7592;51.088;13.732;2023-11-21T16:42:25;5.70;99.90
14993;DHT22;7592;51.088;13.732;2023-11-21T16:47:22;5.70;99.90
14993;DHT22;7592;51.088;13.732;2023-11-21T16:52:15;5.60;99.90
14993;DHT22;7592;51.088;13.732;2023-11-21T16:57:07;5.60;99.90
14993;DHT22;7592;51.088;13.732;2023-11-21T17:02:02;5.30;99.90
14993;DHT22;7592;51.088;13.732;2023-11-21T17:06:55;5.10;99.90
14993;DHT22;7592;51.088;13.732;2023-11-21T17:11:49;5.00;99.90
14993;DHT22;7592;51.088;13.732;2023-11-21T17:16:41;5.00;99.90
14993;DHT22;7592;51.088;13.732;2023-11-21T17:21:35;5.00;99.90
14993;DHT22;7592;51.088;13.732;2023-11-21T17:26:30;5.00;99.90
14993;DHT22;7592;51.088;13.732;2023-11-21T17:31:23;5.00;99.90
14993;DHT22;7592;51.088;13.732;2023-11-21T17:36:15;5.00;99.90
14993;DHT22;7592;51.088;13.732;2023-11-21T17:41:08;4.90;99.90
14993;DHT22;7592;51.088;13.732;2023-11-21T17:46:03;5.00;99.90
14993;DHT22;7592;51.088;13.732;2023-11-21T17:50:55;4.90;99.90
14993;DHT22;7592;51.088;13.732;2023-11-21T17:55:47;4.90;99.90
14993;DHT22;7592;51.088;13.732;2023-11-21T18:00:40;4.90;99.90
14993;DHT22;7592;51.088;13.732;2023-11-21T18:05:32;4.90;99.90
14993;DHT22;7592;51.088;13.732;2023-11-21T18:10:25;5.00;99.90
14993;DHT22;7592;51.088;13.732;2023-11-21T18:15:17;4.90;99.90
14993;DHT22;7592;51.088;13.732;2023-11-21T18:20:11;4.70;99.90
14993;DHT22;7592;51.088;13.732;2023-11-21T18:25:06;4.70;99.90
14993;DHT22;7592;51.088;13.732;2023-11-21T18:29:58;4.70;99.90
14993;DHT22;7592;51.088;13.732;2023-11-21T18:34:50;4.80;99.90
14993;DHT22;7592;51.088;13.732;2023-11-21T18:39:44;4.80;99.90
14993;DHT22;7592;51.088;13.732;2023-11-21T18:44:36;4.70;99.90
14993;DHT22;7592;51.088;13.732;2023-11-21T18:49:45;4.60;99.90
14993;DHT22;7592;51.088;13.732;2023-11-21T18:54:37;4.70;99.90
14993;DHT22;7592;51.088;13.732;2023-11-21T18:59:29;4.60;99.90
14993;DHT22;7592;51.088;13.732;2023-11-21T19:04:22;4.60;99.90
14993;DHT22;7592;51.088;13.732;2023-11-21T19:09:16;4.50;99.90
14993;DHT22;7592;51.088;13.732;2023-11-21T19:14:08;4.50;99.90
14993;DHT22;7592;51.088;13.732;2023-11-21T19:19:04;4.50;99.90
14993;DHT22;7592;51.088;13.732;2023-11-21T19:23:56;4.50;99.90
14993;DHT22;7592;51.088;13.732;2023-11-21T19:28:48;4.50;99.90
14993;DHT22;7592;51.088;13.732;2023-11-21T19:33:41;4.50;99.90
14993;DHT22;7592;51.088;13.732;2023-11-21T19:38:36;4.40;99.90
14993;DHT22;7592;51.088;13.732;2023-11-21T19:43:29;4.40;99.90
14993;DHT22;7592;51.088;13.732;2023-11-21T19:48:23;4.40;99.90
14993;DHT22;7592;51.088;13.732;2023-11-21T19:53:17;4.30;99.90
14993;DHT22;7592;51.088;13.732;2023-11-21T19:58:09;4.30;99.90
14993;DHT22;7592;51.088;13.732;2023-11-21T20:03:02;4.20;99.90
14993;DHT22;7592;51.088;13.732;2023-11-21T20:07:54;4.20;99.90
14993;DHT22;7592;51.088;13.732;2023-11-21T20:12:47;4.20;99.90
14993;DHT22;7592;51.088;13.732;2023-11-21T20:17:49;4.30;99.90
14993;DHT22;7592;51.088;13.732;2023-11-21T20:22:42;4.30;99.90
14993;DHT22;7592;51.088;13.732;2023-11-21T20:27:37;4.30;99.90
14993;DHT22;7592;51.088;13.732;2023-11-21T20:32:30;4.20;99.90
14993;DHT22;7592;51.088;13.732;2023-11-21T20:37:23;4.10;99.90
14993;DHT22;7592;51.088;13.732;2023-11-21T20:42:15;4.10;99.90
14993;DHT22;7592;51.088;13.732;2023-11-21T20:47:10;4.00;99.90
14993;DHT22;7592;51.088;13.732;2023-11-21T20:52:03;4.00;99.90
14993;DHT22;7592;51.088;13.732;2023-11-21T20:56:55;3.90;99.90
14993;DHT22;7592;51.088;13.732;2023-11-21T21:01:47;3.80;99.90
14993;DHT22;7592;51.088;13.732;2023-11-21T21:06:40;3.70;99.90
14993;DHT22;7592;51.088;13.732;2023-11-21T21:11:32;3.70;99.90
14993;DHT22;7592;51.088;13.732;2023-11-21T21:16:25;3.60;99.90
14993;DHT22;7592;51.088;13.732;2023-11-21T21:21:20;3.60;99.90
14993;DHT22;7592;51.088;13.732;2023-11-21T21:26:13;3.50;99.90
14993;DHT22;7592;51.088;13.732;2023-11-21T21:31:07;3.50;99.90
14993;DHT22;7592;51.088;13.732;2023-11-21T21:35:59;3.40;99.90
14993;DHT22;7592;51.088;13.732;2023-11-21T21:40:51;3.20;99.90
14993;DHT22;7592;51.088;13.732;2023-11-21T21:45:44;3.10;99.90
14993;DHT22;7592;51.088;13.732;2023-11-21T21:50:36;3.20;99.90
14993;DHT22;7592;51.088;13.732;2023-11-21T21:55:28;3.20;99.90
14993;DHT22;7592;51.088;13.732;2023-11-21T22:00:22;3.20;99.90
14993;DHT22;7592;51.088;13.732;2023-11-21T22:05:15;3.20;99.90
14993;DHT22;7592;51.088;13.732;2023-11-21T22:10:08;3.20;99.90
14993;DHT22;7592;51.088;13.732;2023-11-21T22:15:00;3.30;99.90
14993;DHT22;7592;51.088;13.732;2023-11-21T22:19:52;3.30;99.90
14993;DHT22;7592;51.088;13.732;2023-11-21T22:24:45;3.40;99.90
14993;DHT22;7592;51.088;13.732;2023-11-21T22:29:37;3.40;99.90
14993;DHT22;7592;51.088;13.732;2023-11-21T22:34:30;3.30;99.90
14993;DHT22;7592;51.088;13.732;2023-11-21T22:39:22;3.20;99.90
14993;DHT22;7592;51.088;13.732;2023-11-21T22:44:14;3.10;99.90
14993;DHT22;7592;51.088;13.732;2023-11-21T22:49:06;3.10;99.90
14993;DHT22;7592;51.088;13.732;2023-11-21T22:54:01;3.20;99.90
14993;DHT22;7592;51.088;13.732;2023-11-21T22:58:53;3.20;99.90
14993;DHT22;7592;51.088;13.732;2023-11-21T23:03:46;3.30;99.90
14993;DHT22;7592;51.088;13.732;2023-11-21T23:08:38;3.20;99.90
14993;DHT22;7592;51.088;13.732;2023-11-21T23:13:30;3.10;99.90
14993;DHT22;7592;51.088;13.732;2023-11-21T23:18:23;2.90;99.90
14993;DHT22;7592;51.088;13.732;2023-11-21T23:23:19;2.90;99.90
14993;DHT22;7592;51.088;13.732;2023-11-21T23:28:17;3.00;99.90
14993;DHT22;7592;51.088;13.732;2023-11-21T23:33:11;3.00;99.90
14993;DHT22;7592;51.088;13.732;2023-11-21T23:38:03;2.90;99.90
14993;DHT22;7592;51.088;13.732;2023-11-21T23:42:56;2.90;99.90
14993;DHT22;7592;51.088;13.732;2023-11-21T23:47:48;2.90;99.90
14993;DHT22;7592;51.088;13.732;2023-11-21T23:52:40;3.00;99.90
14993;DHT22;7592;51.088;13.732;2023-11-21T23:57:32;3.00;99.90
